createdAt,value
2017-07-16T00:01:53.706Z,76.14
2017-07-16T00:04:22.042Z,76.29
2017-07-16T00:06:50.709Z,76.17
2017-07-16T00:09:19.036Z,76.29
2017-07-16T00:11:47.355Z,77.19
2017-07-16T00:14:16.035Z,77.58
2017-07-16T00:16:44.373Z,76.92
2017-07-16T00:19:12.700Z,76.84
2017-07-16T00:21:41.893Z,77.15
2017-07-16T00:24:10.229Z,77.32
2017-07-16T00:26:38.552Z,76.99
2017-07-16T00:29:07.961Z,76.79
2017-07-16T00:31:36.300Z,77.14
2017-07-16T00:34:04.629Z,76.57
2017-07-16T00:36:33.239Z,76.36
2017-07-16T00:39:01.566Z,76.61
2017-07-16T00:41:30.665Z,76.54
2017-07-16T00:44:00.286Z,76.26
2017-07-16T00:46:28.622Z,76.86
2017-07-16T00:48:56.947Z,76.72
2017-07-16T00:51:25.706Z,76.20
2017-07-16T00:53:54.049Z,75.74
2017-07-16T00:56:22.384Z,75.61
2017-07-16T00:58:51.182Z,75.74
2017-07-16T01:01:19.518Z,75.82
2017-07-16T01:03:47.853Z,75.05
2017-07-16T01:06:16.600Z,75.45
2017-07-16T01:08:44.926Z,74.91
2017-07-16T01:11:13.274Z,75.12
2017-07-16T01:13:42.058Z,75.90
2017-07-16T01:16:10.387Z,76.66
2017-07-16T01:18:38.716Z,75.95
2017-07-16T01:21:08.122Z,76.08
2017-07-16T01:23:36.462Z,76.56
2017-07-16T01:26:04.781Z,76.90
2017-07-16T01:28:33.606Z,76.41
2017-07-16T01:31:01.932Z,76.08
2017-07-16T01:33:30.268Z,75.96
2017-07-16T01:35:58.886Z,75.79
2017-07-16T01:38:27.227Z,75.71
2017-07-16T01:40:55.551Z,76.23
2017-07-16T01:43:24.437Z,76.32
2017-07-16T01:45:52.767Z,76.52
2017-07-16T01:48:21.081Z,76.32
2017-07-16T01:50:50.180Z,76.10
2017-07-16T01:53:18.501Z,75.97
2017-07-16T01:55:46.848Z,76.40
2017-07-16T01:58:15.462Z,76.82
2017-07-16T02:00:43.804Z,76.86
2017-07-16T02:03:12.138Z,77.16
2017-07-16T02:05:41.011Z,76.81
2017-07-16T02:08:09.340Z,76.21
2017-07-16T02:10:37.683Z,75.87
2017-07-16T02:13:06.645Z,75.75
2017-07-16T02:15:34.974Z,75.11
2017-07-16T02:18:03.309Z,75.42
2017-07-16T02:20:32.080Z,75.54
2017-07-16T02:23:00.413Z,76.44
2017-07-16T02:25:28.747Z,76.52
2017-07-16T02:27:58.351Z,76.57
2017-07-16T02:30:26.698Z,75.96
2017-07-16T02:32:55.331Z,76.53
2017-07-16T02:35:24.406Z,75.91
2017-07-16T02:37:52.742Z,75.63
2017-07-16T02:40:21.072Z,75.34
2017-07-16T02:42:50.468Z,75.82
2017-07-16T02:45:18.792Z,75.62
2017-07-16T02:47:47.110Z,76.13
2017-07-16T02:50:16.611Z,76.38
2017-07-16T02:52:44.959Z,77.02
2017-07-16T02:55:13.286Z,76.45
2017-07-16T02:57:42.229Z,76.36
2017-07-16T03:00:10.560Z,76.22
2017-07-16T03:02:38.889Z,77.27
2017-07-16T03:05:07.614Z,77.44
2017-07-16T03:07:35.965Z,76.70
2017-07-16T03:10:04.301Z,77.25
2017-07-16T03:12:33.054Z,76.55
2017-07-16T03:15:01.388Z,76.64
2017-07-16T03:17:29.725Z,77.00
2017-07-16T03:19:59.542Z,76.92
2017-07-16T03:22:27.873Z,77.14
2017-07-16T03:25:14.189Z,76.88
2017-07-16T03:27:42.538Z,77.57
2017-07-16T03:30:10.869Z,78.02
2017-07-16T03:32:39.492Z,77.54
2017-07-16T03:35:07.825Z,77.49
2017-07-16T03:37:36.167Z,76.56
2017-07-16T03:40:05.187Z,76.52
2017-07-16T03:42:33.537Z,76.33
2017-07-16T03:45:01.870Z,76.22
2017-07-16T03:47:30.537Z,76.60
2017-07-16T03:49:58.890Z,76.10
2017-07-16T03:52:27.214Z,76.23
2017-07-16T03:54:56.104Z,75.81
2017-07-16T03:57:24.435Z,75.62
2017-07-16T03:59:52.751Z,76.61
2017-07-16T04:02:22.357Z,76.61
2017-07-16T04:04:50.706Z,76.64
2017-07-16T04:07:19.046Z,76.42
2017-07-16T04:09:47.801Z,75.78
2017-07-16T04:12:16.132Z,75.35
2017-07-16T04:14:44.466Z,75.69
2017-07-16T04:17:14.041Z,75.24
2017-07-16T04:19:42.455Z,74.92
2017-07-16T04:22:11.541Z,74.54
2017-07-16T04:24:41.163Z,74.03
2017-07-16T04:27:09.480Z,74.40
2017-07-16T04:29:37.796Z,73.84
2017-07-16T04:32:06.613Z,73.91
2017-07-16T04:34:34.943Z,74.47
2017-07-16T04:37:03.266Z,73.81
2017-07-16T04:39:32.730Z,73.49
2017-07-16T04:42:01.057Z,74.43
2017-07-16T04:44:29.393Z,74.30
2017-07-16T04:46:58.069Z,74.29
2017-07-16T04:49:26.394Z,75.17
2017-07-16T04:51:54.729Z,74.61
2017-07-16T04:54:23.555Z,74.09
2017-07-16T04:56:51.891Z,73.83
2017-07-16T04:59:20.215Z,73.74
2017-07-16T05:01:49.598Z,73.52
2017-07-16T05:04:17.937Z,72.88
2017-07-16T05:06:46.279Z,72.19
2017-07-16T05:09:15.269Z,72.28
2017-07-16T05:11:43.614Z,72.05
2017-07-16T05:14:11.966Z,72.20
2017-07-16T05:16:40.650Z,72.95
2017-07-16T05:19:08.984Z,72.11
2017-07-16T05:21:37.310Z,72.77
2017-07-16T05:24:06.155Z,72.94
2017-07-16T05:26:34.485Z,72.85
2017-07-16T05:29:02.821Z,73.05
2017-07-16T05:31:31.589Z,73.00
2017-07-16T05:33:59.933Z,72.46
2017-07-16T05:36:28.263Z,72.08
2017-07-16T05:38:57.665Z,72.23
2017-07-16T05:41:25.991Z,72.57
2017-07-16T05:43:54.318Z,72.16
2017-07-16T05:46:23.916Z,72.46
2017-07-16T05:48:52.251Z,72.86
2017-07-16T05:51:20.573Z,73.88
2017-07-16T05:53:50.595Z,72.77
2017-07-16T05:56:18.918Z,71.75
2017-07-16T05:58:47.258Z,71.14
2017-07-16T06:01:16.772Z,71.41
2017-07-16T06:03:45.093Z,70.85
2017-07-16T06:06:13.424Z,70.87
2017-07-16T06:08:42.318Z,71.57
2017-07-16T06:11:10.671Z,70.71
2017-07-16T06:13:38.991Z,69.48
2017-07-16T06:16:08.169Z,70.37
2017-07-16T06:18:36.494Z,70.19
2017-07-16T06:21:04.831Z,69.62
2017-07-16T06:23:33.601Z,69.21
2017-07-16T06:26:01.927Z,68.70
2017-07-16T06:28:30.263Z,67.80
2017-07-16T06:30:59.779Z,66.87
2017-07-16T06:33:28.093Z,65.73
2017-07-16T06:35:56.442Z,65.99
2017-07-16T06:38:25.741Z,65.25
2017-07-16T06:40:54.079Z,64.44
2017-07-16T06:43:22.394Z,65.80
2017-07-16T06:45:51.012Z,64.42
2017-07-16T06:48:19.337Z,64.60
2017-07-16T06:50:48.437Z,63.65
2017-07-16T06:53:18.048Z,64.46
2017-07-16T06:55:46.378Z,64.32
2017-07-16T06:58:14.707Z,64.66
2017-07-16T07:00:43.911Z,64.90
2017-07-16T07:03:12.261Z,63.98
2017-07-16T07:05:41.396Z,63.57
2017-07-16T07:08:10.056Z,64.22
2017-07-16T07:10:38.397Z,64.82
2017-07-16T07:13:06.735Z,64.86
2017-07-16T07:15:35.611Z,64.53
2017-07-16T07:18:03.960Z,65.20
2017-07-16T07:20:32.315Z,64.00
2017-07-16T07:23:01.352Z,63.91
2017-07-16T07:25:29.686Z,64.28
2017-07-16T07:27:58.023Z,63.17
2017-07-16T07:30:26.922Z,63.94
2017-07-16T07:32:55.257Z,63.00
2017-07-16T07:35:23.577Z,62.85
2017-07-16T07:37:52.363Z,62.37
2017-07-16T07:40:20.701Z,62.25
2017-07-16T07:42:49.019Z,62.57
2017-07-16T07:45:18.847Z,61.25
2017-07-16T07:47:47.186Z,61.57
2017-07-16T07:50:15.554Z,61.06
2017-07-16T07:52:44.278Z,60.74
2017-07-16T07:55:12.608Z,60.09
2017-07-16T07:57:40.946Z,60.12
2017-07-16T08:00:09.604Z,59.80
2017-07-16T08:02:37.956Z,59.22
2017-07-16T08:05:06.287Z,59.13
2017-07-16T08:07:35.377Z,58.68
2017-07-16T08:10:03.704Z,58.38
2017-07-16T08:12:32.049Z,59.32
2017-07-16T08:15:00.756Z,58.96
2017-07-16T08:17:29.108Z,58.07
2017-07-16T08:19:57.486Z,57.74
2017-07-16T08:22:26.861Z,57.35
2017-07-16T08:24:55.210Z,56.48
2017-07-16T08:27:23.532Z,56.32
2017-07-16T08:29:53.763Z,55.39
2017-07-16T08:32:22.106Z,55.84
2017-07-16T08:34:50.444Z,55.56
2017-07-16T08:37:19.202Z,55.01
2017-07-16T08:39:47.540Z,54.52
2017-07-16T08:42:15.874Z,54.30
2017-07-16T08:44:44.678Z,55.72
2017-07-16T08:47:13.001Z,56.23
2017-07-16T08:49:41.333Z,56.27
2017-07-16T08:52:10.519Z,57.46
2017-07-16T08:54:38.843Z,57.05
2017-07-16T08:57:07.166Z,56.83
2017-07-16T08:59:35.790Z,57.86
2017-07-16T09:02:04.133Z,57.30
2017-07-16T09:04:32.504Z,59.01
2017-07-16T09:07:01.398Z,59.80
2017-07-16T09:09:29.741Z,60.82
2017-07-16T09:11:58.118Z,61.17
2017-07-16T09:14:27.053Z,61.03
2017-07-16T09:16:55.399Z,60.45
2017-07-16T09:19:23.749Z,59.42
2017-07-16T09:21:52.504Z,59.22
2017-07-16T09:24:20.866Z,60.04
2017-07-16T09:26:49.956Z,61.36
2017-07-16T09:29:19.450Z,62.33
2017-07-16T09:31:48.576Z,61.70
2017-07-16T09:34:16.908Z,62.28
2017-07-16T09:36:45.854Z,61.91
2017-07-16T09:39:14.188Z,62.67
2017-07-16T09:41:42.540Z,61.58
2017-07-16T09:44:11.178Z,60.98
2017-07-16T09:46:40.273Z,62.49
2017-07-16T09:49:09.379Z,62.53
2017-07-16T09:51:38.031Z,61.77
2017-07-16T09:54:06.383Z,61.07
2017-07-16T09:56:34.728Z,60.94
2017-07-16T09:59:03.827Z,61.60
2017-07-16T10:01:32.383Z,60.92
2017-07-16T10:04:01.502Z,61.38
2017-07-16T10:06:30.305Z,60.85
2017-07-16T10:08:58.623Z,60.93
2017-07-16T10:11:26.961Z,60.98
2017-07-16T10:13:55.605Z,60.38
2017-07-16T10:16:23.973Z,60.46
2017-07-16T10:18:52.319Z,60.20
2017-07-16T10:21:21.185Z,61.43
2017-07-16T10:23:49.523Z,61.42
2017-07-16T10:26:17.857Z,61.07
2017-07-16T10:28:46.545Z,61.68
2017-07-16T10:31:14.901Z,60.53
2017-07-16T10:33:43.243Z,60.21
2017-07-16T10:36:12.062Z,59.67
2017-07-16T10:38:40.391Z,58.59
2017-07-16T10:41:08.734Z,58.40
2017-07-16T10:43:37.601Z,61.20
2017-07-16T10:46:06.734Z,62.22
2017-07-16T10:48:35.082Z,61.49
2017-07-16T10:51:03.732Z,61.05
2017-07-16T10:53:32.077Z,61.55
2017-07-16T10:56:00.434Z,62.01
2017-07-16T10:58:29.223Z,62.03
2017-07-16T11:00:57.558Z,60.82
2017-07-16T11:03:26.411Z,61.77
2017-07-16T11:05:55.261Z,63.69
2017-07-16T11:08:23.633Z,65.23
2017-07-16T11:10:51.968Z,66.64
2017-07-16T11:13:20.598Z,67.51
2017-07-16T11:15:48.965Z,68.29
2017-07-16T11:18:17.289Z,68.33
2017-07-16T11:20:46.176Z,67.76
2017-07-16T11:23:14.513Z,68.65
2017-07-16T11:25:42.850Z,67.75
2017-07-16T11:28:11.690Z,69.43
2017-07-16T11:30:40.038Z,69.94
2017-07-16T11:33:08.375Z,70.48
2017-07-16T11:35:37.075Z,70.28
2017-07-16T11:38:05.424Z,70.75
2017-07-16T11:40:34.532Z,71.23
2017-07-16T11:43:03.925Z,71.25
2017-07-16T11:45:32.295Z,70.87
2017-07-16T11:48:01.427Z,70.30
2017-07-16T11:50:31.065Z,71.75
2017-07-16T11:52:59.415Z,70.33
2017-07-16T11:55:27.768Z,70.82
2017-07-16T11:57:56.371Z,70.04
2017-07-16T12:00:24.708Z,72.33
2017-07-16T12:02:53.066Z,70.93
2017-07-16T12:05:21.921Z,69.53
2017-07-16T12:07:50.285Z,68.68
2017-07-16T12:10:19.409Z,69.65
2017-07-16T12:12:49.269Z,69.11
2017-07-16T12:15:17.620Z,68.21
2017-07-16T12:17:45.960Z,69.19
2017-07-16T12:20:14.849Z,69.21
2017-07-16T12:22:43.198Z,68.64
2017-07-16T12:25:11.555Z,66.62
2017-07-16T12:27:40.298Z,67.81
2017-07-16T12:30:08.654Z,66.18
2017-07-16T12:32:37.793Z,67.16
2017-07-16T12:35:06.617Z,66.75
2017-07-16T12:37:34.948Z,66.53
2017-07-16T12:40:03.306Z,65.52
2017-07-16T12:42:31.935Z,65.59
2017-07-16T12:45:00.293Z,66.49
2017-07-16T12:47:28.629Z,65.90
2017-07-16T12:49:57.459Z,65.09
2017-07-16T12:52:25.821Z,63.36
2017-07-16T12:54:54.939Z,63.46
2017-07-16T12:57:23.917Z,64.62
2017-07-16T12:59:52.267Z,67.36
2017-07-16T13:02:20.628Z,67.66
2017-07-16T13:04:49.506Z,67.08
2017-07-16T13:07:17.862Z,66.97
2017-07-16T13:09:46.232Z,66.25
2017-07-16T13:12:15.013Z,67.15
2017-07-16T13:14:43.353Z,66.87
2017-07-16T13:17:11.695Z,66.98
2017-07-16T13:19:40.861Z,67.24
2017-07-16T13:22:09.230Z,65.20
2017-07-16T13:24:38.345Z,63.43
2017-07-16T13:27:07.771Z,61.85
2017-07-16T13:29:36.091Z,62.40
2017-07-16T13:32:04.434Z,62.84
2017-07-16T13:34:33.191Z,64.75
2017-07-16T13:37:01.538Z,65.38
2017-07-16T13:39:29.881Z,64.97
2017-07-16T13:41:58.843Z,64.95
2017-07-16T13:44:27.173Z,64.82
2017-07-16T13:46:55.529Z,65.94
2017-07-16T13:49:24.231Z,66.51
2017-07-16T13:51:52.602Z,66.34
2017-07-16T13:54:20.932Z,66.71
2017-07-16T13:56:50.547Z,66.05
2017-07-16T13:59:18.898Z,68.27
2017-07-16T14:01:47.250Z,68.11
2017-07-16T14:04:16.012Z,68.79
2017-07-16T14:06:44.355Z,68.94
2017-07-16T14:09:12.677Z,69.43
2017-07-16T14:11:41.460Z,70.82
2017-07-16T14:14:09.810Z,69.80
2017-07-16T14:16:38.933Z,69.28
2017-07-16T14:19:07.648Z,68.52
2017-07-16T14:21:36.004Z,68.41
2017-07-16T14:24:04.349Z,69.58
2017-07-16T14:26:33.817Z,69.20
2017-07-16T14:29:02.188Z,69.53
2017-07-16T14:31:30.624Z,68.76
2017-07-16T14:34:00.074Z,67.21
2017-07-16T14:36:28.436Z,67.18
2017-07-16T14:38:56.764Z,68.64
2017-07-16T14:41:25.690Z,67.89
2017-07-16T14:43:54.047Z,67.14
2017-07-16T14:46:23.179Z,67.81
2017-07-16T14:48:52.045Z,67.07
2017-07-16T14:51:21.150Z,67.70
2017-07-16T14:53:49.514Z,68.20
2017-07-16T14:56:18.139Z,67.25
2017-07-16T14:58:46.495Z,67.08
2017-07-16T15:01:14.856Z,66.58
2017-07-16T15:03:44.271Z,66.92
2017-07-16T15:06:12.594Z,67.72
2017-07-16T15:08:40.922Z,67.86
2017-07-16T15:11:10.753Z,69.38
2017-07-16T15:13:39.094Z,68.93
2017-07-16T15:16:07.432Z,69.71
2017-07-16T15:18:36.385Z,70.10
2017-07-16T15:21:04.733Z,69.41
2017-07-16T15:23:33.085Z,68.48
2017-07-16T15:26:01.743Z,69.16
2017-07-16T15:28:30.083Z,70.50
2017-07-16T15:30:58.419Z,70.05
2017-07-16T15:33:27.472Z,68.98
2017-07-16T15:35:55.834Z,68.87
2017-07-16T15:38:24.179Z,68.77
2017-07-16T15:40:52.948Z,69.55
2017-07-16T15:43:21.290Z,68.94
2017-07-16T15:45:50.405Z,70.13
2017-07-16T15:48:19.146Z,70.67
2017-07-16T15:50:47.501Z,69.72
2017-07-16T15:53:15.863Z,70.37
2017-07-16T15:55:44.720Z,71.95
2017-07-16T15:58:13.834Z,72.29
2017-07-16T16:00:42.947Z,71.41
2017-07-16T16:03:11.722Z,71.54
2017-07-16T16:05:40.078Z,71.10
2017-07-16T16:08:08.419Z,70.22
2017-07-16T16:10:37.371Z,69.84
2017-07-16T16:13:05.742Z,70.33
2017-07-16T16:15:34.867Z,71.33
2017-07-16T16:18:03.694Z,70.87
2017-07-16T16:20:32.016Z,69.58
2017-07-16T16:23:00.363Z,69.13
2017-07-16T16:25:29.002Z,70.68
2017-07-16T16:27:57.330Z,70.57
2017-07-16T16:30:25.672Z,69.08
2017-07-16T16:32:54.531Z,70.76
2017-07-16T16:35:22.943Z,69.57
2017-07-16T16:37:51.294Z,68.56
2017-07-16T16:40:20.442Z,68.46
2017-07-16T16:42:48.773Z,69.09
2017-07-16T16:45:17.143Z,69.31
2017-07-16T16:47:46.013Z,69.43
2017-07-16T16:50:14.363Z,68.76
2017-07-16T16:52:42.692Z,68.36
2017-07-16T16:55:11.323Z,68.35
2017-07-16T16:57:39.674Z,69.29
2017-07-16T17:00:08.036Z,69.68
2017-07-16T17:02:37.595Z,69.38
2017-07-16T17:05:05.938Z,69.16
2017-07-16T17:07:34.280Z,69.14
2017-07-16T17:10:03.172Z,70.36
2017-07-16T17:12:31.528Z,70.61
2017-07-16T17:14:59.862Z,71.25
2017-07-16T17:17:28.635Z,72.39
2017-07-16T17:19:56.994Z,73.51
2017-07-16T17:22:26.090Z,73.27
2017-07-16T17:24:54.906Z,72.84
2017-07-16T17:27:23.241Z,72.22
2017-07-16T17:29:51.597Z,74.01
2017-07-16T17:32:20.347Z,73.78
2017-07-16T17:34:48.690Z,75.36
2017-07-16T17:37:17.034Z,76.30
2017-07-16T17:39:45.798Z,76.62
2017-07-16T17:42:14.142Z,76.87
2017-07-16T17:44:42.479Z,78.96
2017-07-16T17:47:11.453Z,79.41
2017-07-16T17:49:39.782Z,80.11
2017-07-16T17:52:08.128Z,78.85
2017-07-16T17:54:36.808Z,78.59
2017-07-16T17:57:05.159Z,77.50
2017-07-16T17:59:33.510Z,77.03
2017-07-16T18:02:02.942Z,75.87
2017-07-16T18:04:31.298Z,75.97
2017-07-16T18:07:00.418Z,75.10
2017-07-16T18:09:29.211Z,74.49
2017-07-16T18:11:57.611Z,73.87
2017-07-16T18:14:25.978Z,73.84
2017-07-16T18:16:54.607Z,73.64
2017-07-16T18:19:22.930Z,73.34
2017-07-16T18:21:51.257Z,73.26
2017-07-16T18:24:19.914Z,73.17
2017-07-16T18:26:48.252Z,73.83
2017-07-16T18:29:17.362Z,72.97
2017-07-16T18:31:46.149Z,72.45
2017-07-16T18:34:14.473Z,72.87
2017-07-16T18:36:42.802Z,72.94
2017-07-16T18:39:11.454Z,72.58
2017-07-16T18:41:39.812Z,72.78
2017-07-16T18:44:08.157Z,72.91
2017-07-16T18:46:37.041Z,73.31
2017-07-16T18:49:05.371Z,73.45
2017-07-16T18:51:33.706Z,72.43
2017-07-16T18:54:02.692Z,72.50
2017-07-16T18:56:31.047Z,73.16
2017-07-16T18:58:59.396Z,72.82
2017-07-16T19:01:28.010Z,72.96
2017-07-16T19:03:56.339Z,72.79
2017-07-16T19:06:24.668Z,72.97
2017-07-16T19:08:53.288Z,72.41
2017-07-16T19:11:21.626Z,72.62
2017-07-16T19:13:49.969Z,72.85
2017-07-16T19:16:19.047Z,72.32
2017-07-16T19:18:47.392Z,72.83
2017-07-16T19:21:16.522Z,72.50
2017-07-16T19:23:45.181Z,72.19
2017-07-16T19:26:14.305Z,72.60
2017-07-16T19:28:42.641Z,72.64
2017-07-16T19:31:11.563Z,73.12
2017-07-16T19:33:39.923Z,72.85
2017-07-16T19:36:09.030Z,73.85
2017-07-16T19:38:39.063Z,74.23
2017-07-16T19:41:07.527Z,74.13
2017-07-16T19:43:35.876Z,74.28
2017-07-16T19:46:04.716Z,73.97
2017-07-16T19:48:33.079Z,74.77
2017-07-16T19:51:01.450Z,74.63
2017-07-16T19:53:30.307Z,74.66
2017-07-16T19:55:58.633Z,74.68
2017-07-16T19:58:26.983Z,75.06
2017-07-16T20:00:55.804Z,74.82
2017-07-16T20:03:24.141Z,74.64
2017-07-16T20:05:52.832Z,74.35
2017-07-16T20:08:21.487Z,74.12
2017-07-16T20:10:49.833Z,74.36
2017-07-16T20:13:18.162Z,74.26
2017-07-16T20:15:47.114Z,74.37
2017-07-16T20:18:15.445Z,74.13
2017-07-16T20:20:43.786Z,74.04
2017-07-16T20:23:12.959Z,74.46
2017-07-16T20:25:41.308Z,74.78
2017-07-16T20:28:09.652Z,74.62
2017-07-16T20:30:38.379Z,74.48
2017-07-16T20:33:06.713Z,74.16
2017-07-16T20:35:35.044Z,74.20
2017-07-16T20:38:04.652Z,74.51
2017-07-16T20:40:33.007Z,74.49
2017-07-16T20:43:01.355Z,74.63
2017-07-16T20:45:30.288Z,74.74
2017-07-16T20:47:58.623Z,75.17
2017-07-16T20:50:26.970Z,74.99
2017-07-16T20:52:55.740Z,75.27
2017-07-16T20:55:24.079Z,76.09
2017-07-16T20:57:52.426Z,75.40
2017-07-16T21:00:21.199Z,75.02
2017-07-16T21:02:49.599Z,74.35
2017-07-16T21:05:17.934Z,74.66
2017-07-16T21:07:46.812Z,74.98
2017-07-16T21:10:15.128Z,74.55
2017-07-16T21:12:43.452Z,74.81
2017-07-16T21:15:12.106Z,74.70
2017-07-16T21:17:40.440Z,74.24
2017-07-16T21:20:08.804Z,74.70
2017-07-16T21:22:37.669Z,74.60
2017-07-16T21:25:06.015Z,75.15
2017-07-16T21:27:34.347Z,74.22
2017-07-16T21:30:03.223Z,74.62
2017-07-16T21:32:31.579Z,75.00
2017-07-16T21:34:59.918Z,75.04
2017-07-16T21:37:28.566Z,74.57
2017-07-16T21:39:56.916Z,74.64
2017-07-16T21:42:25.261Z,73.83
2017-07-16T21:44:54.025Z,74.37
2017-07-16T21:47:22.357Z,74.38
2017-07-16T21:49:50.673Z,74.30
2017-07-16T21:52:19.509Z,74.63
2017-07-16T21:54:47.854Z,74.04
2017-07-16T21:57:16.197Z,74.63
2017-07-16T21:59:44.931Z,74.22
2017-07-16T22:02:13.272Z,73.98
2017-07-16T22:04:41.604Z,74.07
2017-07-16T22:07:10.235Z,73.99
2017-07-16T22:09:39.038Z,74.41
2017-07-16T22:12:07.373Z,74.25
2017-07-16T22:14:36.274Z,74.37
2017-07-16T22:17:04.617Z,74.67
2017-07-16T22:19:32.938Z,74.58
2017-07-16T22:22:01.702Z,75.28
2017-07-16T22:24:30.811Z,75.69
2017-07-16T22:26:59.203Z,74.85
2017-07-16T22:29:27.975Z,74.75
2017-07-16T22:31:56.337Z,74.06
2017-07-16T22:34:25.439Z,74.09
2017-07-16T22:36:55.057Z,73.96
2017-07-16T22:39:23.398Z,74.34
2017-07-16T22:41:51.750Z,74.50
2017-07-16T22:44:20.437Z,74.69
2017-07-16T22:46:48.781Z,75.44
2017-07-16T22:49:17.119Z,75.11
2017-07-16T22:51:45.963Z,75.12
2017-07-16T22:54:14.301Z,75.27
2017-07-16T22:56:42.637Z,75.37
2017-07-16T22:59:11.805Z,75.64
2017-07-16T23:01:40.151Z,75.19
2017-07-16T23:04:08.501Z,75.57
2017-07-16T23:06:37.256Z,76.04
2017-07-16T23:09:05.573Z,75.81
2017-07-16T23:11:33.910Z,75.57
2017-07-16T23:14:03.362Z,75.44
2017-07-16T23:16:31.689Z,75.54
2017-07-16T23:19:00.779Z,75.61
2017-07-16T23:21:30.604Z,75.22
2017-07-16T23:23:58.935Z,75.00
2017-07-16T23:26:27.273Z,75.08
2017-07-16T23:28:55.918Z,75.79
2017-07-16T23:31:24.261Z,75.72
2017-07-16T23:33:52.589Z,75.29
2017-07-16T23:36:21.490Z,76.30
2017-07-16T23:38:49.826Z,75.89
2017-07-16T23:41:18.169Z,75.43
2017-07-16T23:43:47.023Z,75.21
2017-07-16T23:46:16.118Z,75.67
2017-07-16T23:48:45.204Z,76.17
2017-07-16T23:51:14.028Z,76.68
2017-07-16T23:53:42.374Z,76.30
2017-07-16T23:56:10.709Z,75.92
2017-07-16T23:58:39.493Z,76.04
